Time;durP1;ratioP1;P1;durP2;ratioP2;P2;SDS_P1;SDS_P2;PMS_P1;PMS_P2;Temp;Humidity;BMP_temperature;BMP_pressure;BME280_temperature;BME280_humidity;BME280_pressure;Samples;Min_cycle;Max_cycle;Signal;HPM_P1;HPM_P2
2022/04/24 00:00:30;;;;;;;6.28;4.30;;;;;;;17.05;35.83;100138.31;6339098;22;20007;-65
2022/04/24 00:02:58;;;;;;;5.38;4.50;;;;;;;17.03;35.99;100143.06;6338829;22;20019;-66
2022/04/24 00:05:24;;;;;;;5.25;4.43;;;;;;;17.00;36.03;100134.41;6338935;22;20433;-65
2022/04/24 00:07:51;;;;;;;5.53;4.95;;;;;;;16.95;36.26;100137.63;6339006;22;20015;-64
2022/04/24 00:10:21;;;;;;;4.57;4.18;;;;;;;16.92;36.22;100132.53;6338990;22;20018;-65
2022/04/24 00:12:50;;;;;;;5.00;4.50;;;;;;;16.90;36.38;100133.72;6338544;22;20025;-66
2022/04/24 00:15:17;;;;;;;4.90;4.40;;;;;;;16.88;36.18;100133.03;6311609;22;20057;-65
2022/04/24 00:17:43;;;;;;;5.65;4.72;;;;;;;16.84;36.18;100130.66;6339049;22;20011;-65
2022/04/24 00:20:12;;;;;;;5.78;4.78;;;;;;;16.81;36.16;100136.41;6338313;22;20015;-65
2022/04/24 00:22:39;;;;;;;5.20;4.70;;;;;;;16.76;36.60;100127.94;6311622;22;20041;-65
2022/04/24 00:25:06;;;;;;;5.43;4.93;;;;;;;16.73;36.68;100132.84;6339311;22;20014;-64
2022/04/24 00:27:32;;;;;;;6.30;4.90;;;;;;;16.70;36.42;100136.72;6311726;22;20144;-65
2022/04/24 00:30:22;;;;;;;5.38;4.88;;;;;;;16.66;36.78;100123.66;6338439;22;20090;-66
2022/04/24 00:32:49;;;;;;;5.43;4.93;;;;;;;16.68;36.65;100121.63;6338617;22;20428;-65
2022/04/24 00:35:15;;;;;;;5.65;4.90;;;;;;;16.66;36.85;100119.09;6338831;22;20007;-65
2022/04/24 00:37:45;;;;;;;6.13;5.13;;;;;;;16.64;36.72;100117.53;6339044;22;20102;-66
2022/04/24 00:40:19;;;;;;;5.88;5.22;;;;;;;16.64;36.79;100109.41;6339088;22;20018;-65
2022/04/24 00:42:45;;;;;;;5.63;4.85;;;;;;;16.60;36.58;100113.44;6311846;22;20010;-64
2022/04/24 00:45:12;;;;;;;11.15;4.70;;;;;;;16.58;36.50;100108.19;6339011;22;20494;-65
2022/04/24 00:47:42;;;;;;;4.78;4.18;;;;;;;16.55;36.62;100108.53;6286277;22;20468;-63
2022/04/24 00:50:34;;;;;;;5.68;4.45;;;;;;;16.51;36.82;100109.88;6338316;22;20015;-66
2022/04/24 00:53:01;;;;;;;4.95;4.45;;;;;;;16.50;36.97;100105.47;6338626;22;20022;-64
2022/04/24 00:55:29;;;;;;;6.13;4.72;;;;;;;16.48;37.05;100110.19;6339014;22;20018;-65
2022/04/24 00:57:59;;;;;;;5.20;4.70;;;;;;;16.46;36.92;100104.94;6310454;22;20037;-65
2022/04/24 01:00:38;;;;;;;5.32;4.35;;;;;;;16.45;37.15;100110.53;6337528;22;20021;-65
2022/04/24 01:03:05;;;;;;;5.32;4.82;;;;;;;16.43;37.08;100110.69;6337363;22;20098;-64
2022/04/24 01:05:32;;;;;;;5.05;4.53;;;;;;;16.40;37.37;100110.19;6337901;22;20015;-66
2022/04/24 01:07:59;;;;;;;7.60;5.53;;;;;;;16.38;37.22;100113.06;6337527;22;20437;-65
2022/04/24 01:10:27;;;;;;;6.13;5.00;;;;;;;16.32;37.34;100110.97;6337870;22;20010;-65
2022/04/24 01:12:54;;;;;;;7.30;5.80;;;;;;;16.29;37.30;100111.28;6285201;22;20342;-65
2022/04/24 01:15:20;;;;;;;5.35;4.72;;;;;;;16.24;37.64;100119.06;6337824;22;20106;-65
2022/04/24 01:17:47;;;;;;;7.40;5.18;;;;;;;16.19;37.39;100122.25;6337745;22;20007;-65
2022/04/24 01:20:19;;;;;;;5.95;5.20;;;;;;;16.13;37.62;100120.19;6337292;22;20011;-65
2022/04/24 01:22:50;;;;;;;5.95;5.35;;;;;;;16.10;37.63;100117.81;6337328;22;20449;-65
2022/04/24 01:25:23;;;;;;;7.00;5.53;;;;;;;16.05;37.75;100111.19;6337166;22;20015;-65
2022/04/24 01:27:50;;;;;;;5.60;5.10;;;;;;;16.03;37.92;100115.91;6337270;22;20018;-65
2022/04/24 01:30:18;;;;;;;6.25;5.65;;;;;;;15.99;37.81;100117.25;6337428;22;20011;-65
2022/04/24 01:32:45;;;;;;;6.20;5.53;;;;;;;15.94;38.01;100116.88;6337381;22;20017;-65
2022/04/24 01:35:13;;;;;;;5.95;5.35;;;;;;;15.89;37.88;100117.38;6337971;22;20015;-65
2022/04/24 01:37:44;;;;;;;5.82;5.22;;;;;;;15.86;38.21;100115.00;6310271;22;20014;-65
2022/04/24 01:40:15;;;;;;;6.20;5.55;;;;;;;15.81;38.03;100120.88;6310264;22;20015;-66
2022/04/24 01:42:43;;;;;;;6.30;5.63;;;;;;;15.80;38.18;100116.47;6338006;22;20011;-65
2022/04/24 01:45:10;;;;;;;7.63;5.45;;;;;;;15.75;38.21;100121.53;6336806;22;20011;-65
2022/04/24 01:47:37;;;;;;;8.38;6.05;;;;;;;15.71;38.27;100116.59;6338605;22;20022;-65
2022/04/24 01:50:08;;;;;;;10.35;5.65;;;;;;;15.66;38.14;100122.47;6338484;22;20013;-66
2022/04/24 01:52:39;;;;;;;6.63;6.03;;;;;;;15.63;38.54;100117.38;6310788;22;20494;-66
2022/04/24 01:55:06;;;;;;;6.47;5.85;;;;;;;15.59;38.35;100121.38;6338361;22;20349;-65
2022/04/24 01:57:33;;;;;;;6.65;5.95;;;;;;;15.52;38.59;100126.56;6338280;22;20015;-65
2022/04/24 01:59:59;;;;;;;8.43;5.97;;;;;;;15.48;38.63;100117.06;6337598;22;20014;-66
2022/04/24 02:02:27;;;;;;;5.97;5.38;;;;;;;15.46;38.70;100118.22;6338245;22;20010;-64
2022/04/24 02:04:54;;;;;;;6.93;6.22;;;;;;;15.43;38.83;100123.94;6310855;22;20026;-65
2022/04/24 02:07:20;;;;;;;7.18;6.47;;;;;;;15.39;38.84;100119.88;6337714;22;20457;-65
2022/04/24 02:09:47;;;;;;;9.52;6.38;;;;;;;15.38;38.91;100116.31;6310761;22;20011;-65
2022/04/24 02:12:15;;;;;;;7.20;6.50;;;;;;;15.38;39.00;100118.16;6338149;22;20015;-65
2022/04/24 02:14:44;;;;;;;7.15;6.45;;;;;;;15.37;39.19;100124.59;6338030;22;20027;-65
2022/04/24 02:17:10;;;;;;;8.02;6.72;;;;;;;15.34;39.04;100123.03;6338277;22;20089;-65
2022/04/24 02:19:37;;;;;;;7.38;6.05;;;;;;;15.31;38.97;100130.63;6337934;22;20011;-65
2022/04/24 02:22:06;;;;;;;6.90;6.20;;;;;;;15.29;39.13;100119.97;6337561;22;20041;-65
2022/04/24 02:24:33;;;;;;;7.95;6.60;;;;;;;15.26;39.05;100120.28;6337809;22;20041;-66
2022/04/24 02:26:59;;;;;;;7.90;7.07;;;;;;;15.23;39.15;100123.28;6337748;22;20006;-64
2022/04/24 02:29:27;;;;;;;13.10;6.60;;;;;;;15.20;39.21;100121.75;6337181;22;20563;-65
2022/04/24 02:31:57;;;;;;;7.47;6.68;;;;;;;15.19;39.32;100121.91;6337815;22;20015;-65
2022/04/24 02:34:23;;;;;;;8.13;7.32;;;;;;;15.16;39.45;100114.09;6337964;22;20021;-65
2022/04/24 02:36:50;;;;;;;8.15;6.90;;;;;;;15.12;39.45;100118.13;6337502;22;20010;-66
2022/04/24 02:39:16;;;;;;;7.63;6.82;;;;;;;15.09;39.46;100126.56;6337478;22;20017;-64
2022/04/24 02:41:53;;;;;;;10.98;7.57;;;;;;;15.07;39.50;100118.59;6337394;22;20022;-65
2022/04/24 02:44:21;;;;;;;8.27;7.47;;;;;;;15.05;39.78;100125.16;6337449;22;20049;-65
2022/04/24 02:46:47;;;;;;;9.35;7.00;;;;;;;15.03;39.52;100129.88;6337440;22;20011;-65
2022/04/24 02:49:14;;;;;;;7.82;7.03;;;;;;;14.99;39.62;100128.47;6337488;22;20045;-65
2022/04/24 02:51:49;;;;;;;8.02;7.22;;;;;;;14.97;39.74;100136.75;6336974;22;20015;-65
2022/04/24 02:54:15;;;;;;;8.27;7.30;;;;;;;14.92;39.91;100123.69;6337512;22;20345;-65
2022/04/24 02:56:42;;;;;;;8.30;7.50;;;;;;;14.88;40.01;100134.97;6337484;22;20021;-64
2022/04/24 02:59:14;;;;;;;9.80;7.97;;;;;;;14.82;39.95;100132.84;6337405;22;20015;-65
2022/04/24 03:01:48;;;;;;;8.05;7.18;;;;;;;14.78;40.03;100126.06;6337177;22;20015;-64
2022/04/24 03:04:15;;;;;;;8.75;7.63;;;;;;;14.75;39.91;100134.47;6337315;22;20029;-64
2022/04/24 03:06:43;;;;;;;8.63;7.68;;;;;;;14.68;40.29;100134.22;6337150;22;20007;-64
2022/04/24 03:09:09;;;;;;;8.05;7.25;;;;;;;14.62;40.24;100130.28;6336535;22;20349;-64
2022/04/24 03:11:41;;;;;;;8.70;7.22;;;;;;;14.58;40.38;100130.75;6309099;22;20017;-65
2022/04/24 03:14:07;;;;;;;9.35;7.95;;;;;;;14.54;40.67;100130.19;6285915;22;20019;-65
2022/04/24 03:16:34;;;;;;;9.93;8.13;;;;;;;14.49;40.53;100126.25;6311911;22;20487;-64
2022/04/24 03:19:01;;;;;;;8.80;7.72;;;;;;;14.45;40.64;100128.41;6312066;22;20344;-65
2022/04/24 03:21:34;;;;;;;10.45;7.90;;;;;;;14.41;40.78;100129.69;6338737;22;20014;-65
2022/04/24 03:24:00;;;;;;;9.05;8.10;;;;;;;14.36;41.01;100134.69;6338812;22;20011;-65
2022/04/24 03:26:27;;;;;;;9.65;7.80;;;;;;;14.34;40.85;100136.69;6338961;22;20018;-64
2022/04/24 03:28:53;;;;;;;10.63;7.53;;;;;;;14.32;41.05;100138.69;6338151;22;20011;-66
2022/04/24 03:31:49;;;;;;;9.32;8.30;;;;;;;14.28;41.23;100143.53;6338290;22;20500;-65
2022/04/24 03:34:15;;;;;;;9.27;8.13;;;;;;;14.26;41.22;100134.72;6339057;22;20011;-64
2022/04/24 03:36:42;;;;;;;10.07;7.80;;;;;;;14.24;41.44;100138.59;6338892;22;20020;-64
2022/04/24 03:39:08;;;;;;;10.23;8.52;;;;;;;14.22;41.49;100133.34;6338820;22;20022;-65
2022/04/24 03:41:37;;;;;;;9.68;8.25;;;;;;;14.19;41.39;100132.78;6338370;22;20044;-65
2022/04/24 03:44:06;;;;;;;11.00;8.48;;;;;;;14.15;41.49;100139.47;6310778;22;20084;-65
2022/04/24 03:46:33;;;;;;;9.43;7.88;;;;;;;14.11;41.85;100141.59;6310822;22;20015;-65
2022/04/24 03:48:59;;;;;;;9.98;7.90;;;;;;;14.06;41.78;100135.78;6338948;22;20014;-65
2022/04/24 03:51:28;;;;;;;9.93;7.18;;;;;;;14.04;41.86;100128.84;6337848;22;20014;-65
2022/04/24 03:53:55;;;;;;;8.75;7.85;;;;;;;14.00;42.06;100131.00;6311501;22;20010;-65
2022/04/24 03:56:47;;;;;;;9.30;7.88;;;;;;;13.92;42.27;100137.13;6337948;22;20018;-64
2022/04/24 03:59:13;;;;;;;10.35;8.50;;;;;;;13.91;42.15;100135.44;6337540;22;20030;-64
2022/04/24 04:01:44;;;;;;;11.05;8.00;;;;;;;13.87;42.31;100134.03;6338354;22;20011;-65
2022/04/24 04:04:11;;;;;;;9.18;7.95;;;;;;;13.85;42.50;100135.16;6338261;22;20014;-65
2022/04/24 04:06:37;;;;;;;9.70;8.15;;;;;;;13.84;42.40;100134.31;6337909;22;20022;-65
2022/04/24 04:09:04;;;;;;;9.65;7.93;;;;;;;13.82;42.54;100139.00;6338069;22;20015;-65
2022/04/24 04:11:36;;;;;;;9.55;8.50;;;;;;;13.81;42.82;100128.38;6337674;22;20007;-64
2022/04/24 04:14:03;;;;;;;8.27;7.32;;;;;;;13.79;42.62;100133.91;6337977;22;20025;-65
2022/04/24 04:16:29;;;;;;;9.75;8.00;;;;;;;13.76;42.78;100139.59;6338022;22;20006;-65
2022/04/24 04:18:57;;;;;;;9.10;8.13;;;;;;;13.73;42.87;100133.66;6338182;22;20014;-65
2022/04/24 04:21:26;;;;;;;10.23;7.90;;;;;;;13.71;43.05;100139.19;6337957;22;20041;-65
2022/04/24 04:23:53;;;;;;;9.63;7.72;;;;;;;13.67;42.86;100137.78;6310723;22;20015;-64
2022/04/24 04:26:20;;;;;;;9.50;7.53;;;;;;;13.65;43.16;100137.94;6338220;22;20015;-65
2022/04/24 04:28:47;;;;;;;12.15;7.63;;;;;;;13.62;43.18;100131.97;6337350;22;20496;-66
2022/04/24 04:31:18;;;;;;;11.70;7.82;;;;;;;13.58;43.26;100135.97;6337639;22;20407;-64
2022/04/24 04:33:45;;;;;;;9.57;7.22;;;;;;;13.55;43.55;100144.34;6310816;22;20113;-65
2022/04/24 04:36:12;;;;;;;9.05;7.05;;;;;;;13.53;43.42;100144.47;6310716;22;20348;-64
2022/04/24 04:38:38;;;;;;;9.95;7.40;;;;;;;13.51;43.48;100151.88;6310812;22;20019;-65
2022/04/24 04:41:14;;;;;;;10.23;7.47;;;;;;;13.50;43.83;100149.31;6337150;22;20387;-65
2022/04/24 04:43:40;;;;;;;;;;;;;;;13.47;43.52;100160.41;6339073;22;20018;-64
2022/04/24 04:46:07;;;;;;;8.85;7.30;;;;;;;13.51;43.50;100156.41;6339357;22;19914;-65
2022/04/24 04:48:34;;;;;;;8.77;7.10;;;;;;;13.50;43.68;100154.72;6339232;22;20506;-64
2022/04/24 04:51:05;;;;;;;8.82;7.13;;;;;;;13.46;43.82;100159.53;6338889;22;20021;-64
2022/04/24 04:53:34;;;;;;;8.27;7.03;;;;;;;13.47;43.74;100163.94;6338510;22;20411;-65
2022/04/24 04:56:01;;;;;;;8.50;7.05;;;;;;;13.47;43.89;100165.78;6338477;22;20015;-65
2022/04/24 04:58:29;;;;;;;10.48;7.35;;;;;;;13.48;43.93;100178.28;6338561;22;20021;-65
2022/04/24 05:00:59;;;;;;;13.13;7.40;;;;;;;13.48;43.99;100181.84;6337963;22;20015;-64
2022/04/24 05:03:26;;;;;;;9.25;7.15;;;;;;;13.49;44.13;100180.00;6338437;22;20049;-64
2022/04/24 05:05:53;;;;;;;8.32;7.25;;;;;;;13.49;44.29;100188.09;6338740;22;20015;-63
2022/04/24 05:08:19;;;;;;;7.65;6.78;;;;;;;13.50;44.17;100187.09;6310381;22;20019;-64
2022/04/24 05:10:47;;;;;;;7.50;6.45;;;;;;;13.51;44.09;100188.78;6337437;22;20021;-64
2022/04/24 05:13:13;;;;;;;8.40;7.15;;;;;;;13.51;44.08;100188.78;6284121;22;20044;-64
2022/04/24 05:15:40;;;;;;;9.82;6.80;;;;;;;13.52;44.12;100195.88;6337407;22;20085;-64
2022/04/24 05:18:07;;;;;;;6.82;6.13;;;;;;;13.52;44.17;100201.28;6337343;22;20015;-64
2022/04/24 05:20:35;;;;;;;6.85;6.15;;;;;;;13.51;44.31;100200.44;6337916;22;20011;-65
2022/04/24 05:23:08;;;;;;;6.93;6.20;;;;;;;13.53;44.34;100200.28;6337726;22;20426;-64
2022/04/24 05:25:36;;;;;;;8.40;6.72;;;;;;;13.55;44.36;100201.84;6310075;22;20018;-64
2022/04/24 05:28:03;;;;;;;9.75;6.07;;;;;;;13.56;44.23;100213.50;6337739;22;20018;-63
2022/04/24 05:30:33;;;;;;;8.40;6.63;;;;;;;13.55;44.31;100212.63;6309933;22;20389;-63
2022/04/24 05:33:00;;;;;;;9.55;6.88;;;;;;;13.55;44.47;100209.09;6336784;22;20014;-64
2022/04/24 05:35:26;;;;;;;9.07;6.28;;;;;;;13.55;44.44;100204.53;6309796;22;20019;-66
2022/04/24 05:37:54;;;;;;;7.68;6.20;;;;;;;13.56;44.49;100206.25;6310031;22;20011;-65
2022/04/24 05:40:22;;;;;;;9.77;6.60;;;;;;;13.56;44.57;100214.34;6337548;22;20021;-65
2022/04/24 05:42:54;;;;;;;8.48;6.28;;;;;;;13.56;44.67;100208.09;6309526;22;20045;-64
2022/04/24 05:45:22;;;;;;;7.25;6.05;;;;;;;13.56;44.42;100210.78;6337367;22;20050;-65
2022/04/24 05:47:49;;;;;;;10.73;6.65;;;;;;;13.57;44.57;100210.66;6309395;22;20047;-63
2022/04/24 05:50:41;;;;;;;9.15;6.72;;;;;;;13.56;44.52;100211.66;6336946;22;20402;-63
2022/04/24 05:53:08;;;;;;;7.30;6.07;;;;;;;13.59;44.56;100211.34;6337336;22;20086;-64
2022/04/24 05:55:35;;;;;;;8.88;6.53;;;;;;;13.61;44.63;100213.91;6337056;22;20207;-65
2022/04/24 05:58:02;;;;;;;8.98;6.47;;;;;;;13.62;44.56;100215.59;6336807;22;20015;-64
2022/04/24 06:00:31;;;;;;;7.32;6.20;;;;;;;13.64;44.54;100213.63;6309565;22;20011;-64
2022/04/24 06:03:02;;;;;;;7.30;6.18;;;;;;;13.68;44.59;100228.53;6336708;22;20088;-66
2022/04/24 06:05:29;;;;;;;7.68;5.80;;;;;;;13.71;44.64;100214.75;6337193;22;20022;-64
2022/04/24 06:07:59;;;;;;;9.57;5.93;;;;;;;13.78;44.50;100225.81;6337519;22;20321;-65
2022/04/24 06:10:30;;;;;;;9.38;6.03;;;;;;;13.84;44.51;100228.78;6337486;22;20015;-65
2022/04/24 06:12:57;;;;;;;11.77;6.05;;;;;;;13.91;44.30;100223.66;6309371;22;20015;-64
2022/04/24 06:15:27;;;;;;;8.93;6.03;;;;;;;13.97;44.60;100233.88;6337204;22;20010;-65
2022/04/24 06:17:57;;;;;;;6.70;5.25;;;;;;;14.04;44.34;100226.88;6308724;22;20037;-64
2022/04/24 06:20:28;;;;;;;7.60;5.95;;;;;;;14.14;44.43;100226.91;6336914;22;20022;-64
2022/04/24 06:22:57;;;;;;;7.80;5.75;;;;;;;14.23;44.31;100236.81;6336981;22;20010;-65
2022/04/24 06:25:30;;;;;;;8.98;5.85;;;;;;;14.33;44.21;100224.13;6336660;22;20085;-63
2022/04/24 06:27:57;;;;;;;7.57;6.03;;;;;;;14.41;44.20;100221.53;6309376;22;20019;-65
2022/04/24 06:30:30;;;;;;;6.65;5.43;;;;;;;14.50;44.01;100217.97;6336581;22;20018;-64
2022/04/24 06:32:57;;;;;;;6.47;5.78;;;;;;;14.63;43.70;100225.72;6335652;22;20043;-64
2022/04/24 06:35:25;;;;;;;6.20;5.60;;;;;;;14.77;44.13;100227.06;6308698;22;20449;-64
2022/04/24 06:37:53;;;;;;;6.25;5.28;;;;;;;14.90;43.83;100228.44;6336341;22;20007;-64
2022/04/24 06:40:25;;;;;;;6.20;5.60;;;;;;;15.04;43.77;100226.22;6336500;22;20307;-64
2022/04/24 06:42:56;;;;;;;6.53;5.32;;;;;;;15.18;43.48;100225.69;6336323;22;20022;-65
2022/04/24 06:45:27;;;;;;;9.23;6.22;;;;;;;15.34;43.49;100225.84;6336869;22;20019;-65
2022/04/24 06:47:56;;;;;;;6.50;5.57;;;;;;;15.50;43.15;100226.00;6308880;22;20022;-63
2022/04/24 06:50:28;;;;;;;7.00;5.85;;;;;;;15.61;43.08;100226.81;6336599;22;20011;-64
2022/04/24 06:52:58;;;;;;;7.65;5.03;;;;;;;15.72;42.90;100226.56;6337259;22;20013;-65
2022/04/24 06:55:26;;;;;;;6.85;6.15;;;;;;;15.87;42.79;100238.53;6337187;22;20041;-65
2022/04/24 06:57:53;;;;;;;9.52;5.90;;;;;;;15.99;42.57;100233.72;6336868;22;20015;-65
2022/04/24 07:00:25;;;;;;;9.75;5.57;;;;;;;16.13;42.63;100239.41;6336861;22;20015;-65
2022/04/24 07:02:52;;;;;;;6.05;5.25;;;;;;;16.27;42.35;100237.97;6336607;22;20011;-66
2022/04/24 07:05:21;;;;;;;7.15;5.80;;;;;;;16.41;42.12;100234.69;6336454;22;20042;-66
2022/04/24 07:07:48;;;;;;;8.30;5.85;;;;;;;16.53;41.88;100236.09;6336434;22;20045;-65
2022/04/24 07:10:16;;;;;;;7.60;6.05;;;;;;;16.64;41.74;100226.81;6337258;22;20011;-66
2022/04/24 07:12:52;;;;;;;7.00;5.82;;;;;;;16.75;41.56;100239.28;6336959;22;20041;-66
2022/04/24 07:15:21;;;;;;;8.30;5.60;;;;;;;16.84;41.53;100249.13;6336982;22;20021;-65
2022/04/24 07:17:50;;;;;;;10.35;5.80;;;;;;;16.94;40.91;100240.84;6336661;22;20011;-65
2022/04/24 07:20:18;;;;;;;11.63;5.97;;;;;;;17.03;41.13;100239.88;6337458;22;20027;-65
2022/04/24 07:22:47;;;;;;;7.05;5.53;;;;;;;17.13;41.03;100240.59;6336677;22;20011;-66
2022/04/24 07:25:16;;;;;;;5.85;5.30;;;;;;;17.23;40.69;100252.16;6336501;22;20021;-65
2022/04/24 07:27:44;;;;;;;6.85;5.43;;;;;;;17.31;40.36;100246.75;6336541;22;20472;-65
2022/04/24 07:30:36;;;;;;;7.20;5.78;;;;;;;17.39;40.17;100238.63;6336594;22;20468;-66
2022/04/24 07:33:03;;;;;;;7.70;5.75;;;;;;;17.49;40.25;100249.31;6336632;22;20015;-65
2022/04/24 07:35:35;;;;;;;6.40;5.72;;;;;;;17.60;39.95;100248.97;6337038;22;20006;-65
2022/04/24 07:38:02;;;;;;;7.93;6.07;;;;;;;17.73;39.63;100246.66;6336940;22;20022;-65
2022/04/24 07:40:32;;;;;;;7.43;5.68;;;;;;;17.84;39.46;100248.19;6336834;22;20022;-66
2022/04/24 07:43:00;;;;;;;7.78;6.97;;;;;;;17.97;39.70;100250.41;6309381;22;20387;-66
2022/04/24 07:45:38;;;;;;;6.05;5.45;;;;;;;18.11;39.16;100249.69;6337274;22;20025;-65
2022/04/24 07:48:08;;;;;;;7.25;5.97;;;;;;;18.28;39.50;100245.94;6337238;22;20060;-66
2022/04/24 07:50:41;;;;;;;5.82;5.32;;;;;;;18.44;38.98;100250.47;6336647;22;20011;-66
2022/04/24 07:53:08;;;;;;;6.97;5.90;;;;;;;18.59;38.80;100243.31;6336290;22;20085;-66
2022/04/24 07:55:35;;;;;;;7.53;6.10;;;;;;;18.67;38.35;100237.88;6336569;22;20090;-64
2022/04/24 07:58:03;;;;;;;8.13;6.30;;;;;;;18.75;38.10;100241.59;6336380;22;20022;-68
2022/04/24 08:00:31;;;;;;;11.95;6.00;;;;;;;18.82;38.11;100239.88;6337491;22;20447;-68
2022/04/24 08:03:04;;;;;;;8.07;6.05;;;;;;;18.91;38.02;100255.97;6310873;22;20015;-67
2022/04/24 08:05:32;;;;;;;7.07;6.30;;;;;;;18.99;37.48;100249.63;6338632;22;20019;-67
2022/04/24 08:08:02;;;;;;;8.10;6.68;;;;;;;19.03;37.33;100251.84;6338072;22;20018;-68
2022/04/24 08:10:34;;;;;;;8.05;6.35;;;;;;;19.09;37.26;100261.16;6337983;22;20337;-67
2022/04/24 08:13:04;;;;;;;6.85;6.10;;;;;;;19.14;37.09;100258.75;6337980;22;20015;-67
2022/04/24 08:15:32;;;;;;;9.07;6.63;;;;;;;19.23;36.58;100267.72;6338281;22;20033;-68
2022/04/24 08:17:59;;;;;;;8.07;6.55;;;;;;;19.32;36.40;100263.91;6338073;22;20018;-68
2022/04/24 08:20:29;;;;;;;7.68;6.88;;;;;;;19.43;36.75;100265.41;6338177;22;20015;-68
2022/04/24 08:22:57;;;;;;;10.13;6.65;;;;;;;19.59;36.72;100258.00;6337764;22;20510;-67
2022/04/24 08:25:25;;;;;;;7.45;6.55;;;;;;;19.74;36.71;100263.50;6337970;22;20026;-69
2022/04/24 08:27:54;;;;;;;7.40;6.32;;;;;;;19.86;36.43;100255.75;6337875;22;20072;-69
2022/04/24 08:30:24;;;;;;;14.52;6.80;;;;;;;19.98;36.14;100260.56;6337927;22;20344;-68
2022/04/24 08:32:51;;;;;;;6.70;6.00;;;;;;;20.11;36.14;100259.13;6338051;22;20085;-69
2022/04/24 08:35:20;;;;;;;7.68;6.43;;;;;;;20.20;36.28;100268.91;6338038;22;20445;-68
2022/04/24 08:37:48;;;;;;;8.63;6.50;;;;;;;20.26;36.02;100263.56;6284751;22;20015;-68
2022/04/24 08:40:20;;;;;;;7.40;6.50;;;;;;;20.36;35.88;100252.41;6338143;22;20011;-69
2022/04/24 08:42:47;;;;;;;9.73;6.55;;;;;;;20.49;35.82;100269.00;6337139;22;20350;-66
2022/04/24 08:45:15;;;;;;;8.38;6.82;;;;;;;20.58;35.64;100262.41;6336971;22;20018;-69
2022/04/24 08:47:43;;;;;;;8.65;6.22;;;;;;;20.65;35.54;100267.97;6337937;22;20463;-69
2022/04/24 08:50:14;;;;;;;9.65;6.70;;;;;;;20.72;35.43;100257.13;6338051;22;20037;-70
2022/04/24 08:52:46;;;;;;;9.57;6.60;;;;;;;20.80;35.13;100268.78;6337546;22;20015;-69
2022/04/24 08:55:13;;;;;;;7.80;6.60;;;;;;;20.91;35.23;100265.63;6338148;22;20508;-69
2022/04/24 08:57:39;;;;;;;7.47;6.55;;;;;;;21.00;35.05;100266.34;6337560;22;20011;-67
2022/04/24 09:00:11;;;;;;;8.05;7.25;;;;;;;21.07;34.62;100261.81;6337506;22;20010;-68
2022/04/24 09:02:49;;;;;;;7.55;6.63;;;;;;;21.11;34.65;100265.88;6337426;22;20042;-70
2022/04/24 09:05:16;;;;;;;8.02;6.40;;;;;;;21.15;34.08;100277.25;6285024;22;20337;-67
2022/04/24 09:07:46;;;;;;;7.72;6.90;;;;;;;21.23;34.43;100279.91;6337590;22;20345;-68
2022/04/24 09:11:07;;;;;;;10.40;6.40;;;;;;;21.30;33.96;100278.09;6337143;22;20022;-67
2022/04/24 09:16:32;;;;;;;7.90;7.10;;;;;;;21.50;33.67;100270.13;6310075;22;20022;-68
2022/04/24 09:18:59;;;;;;;7.35;6.65;;;;;;;21.54;33.76;100271.41;6309669;22;20014;-69
2022/04/24 09:21:30;;;;;;;9.35;6.57;;;;;;;21.59;33.85;100265.41;6309879;22;20015;-68
2022/04/24 09:24:00;;;;;;;11.45;7.53;;;;;;;21.68;33.76;100269.72;6337178;22;20019;-68
2022/04/24 09:26:27;;;;;;;9.52;7.72;;;;;;;21.74;33.52;100266.19;6337832;22;20022;-69
2022/04/24 09:29:12;;;;;;;7.78;7.00;;;;;;;21.80;33.14;100255.31;6337602;22;20088;-68
2022/04/24 09:31:48;;;;;;;8.73;6.95;;;;;;;21.88;33.31;100260.66;6337294;22;20445;-68
2022/04/24 09:34:17;;;;;;;8.40;7.32;;;;;;;22.00;33.45;100263.69;6337163;22;20097;-68
2022/04/24 09:36:57;;;;;;;8.63;7.70;;;;;;;22.07;33.09;100261.91;6337698;22;20090;-67
2022/04/24 09:39:28;;;;;;;9.55;8.13;;;;;;;22.14;32.79;100251.84;6337363;22;20464;-69
2022/04/24 09:42:13;;;;;;;8.38;7.38;;;;;;;22.24;33.03;100264.34;6309838;22;20021;-69
2022/04/24 09:44:42;;;;;;;8.67;7.07;;;;;;;22.36;33.07;100265.50;6337063;22;20046;-69
2022/04/24 09:47:29;;;;;;;9.00;7.20;;;;;;;22.47;32.68;100263.06;6337206;22;20011;-70
2022/04/24 09:49:59;;;;;;;9.30;7.10;;;;;;;22.56;32.33;100260.16;6337075;22;20015;-70
2022/04/24 09:52:31;;;;;;;8.82;7.55;;;;;;;22.68;32.45;100259.41;6337718;22;20006;-69
2022/04/24 09:54:58;;;;;;;9.27;7.78;;;;;;;22.78;32.23;100259.88;6337303;22;20330;-70
2022/04/24 09:57:25;;;;;;;9.35;7.97;;;;;;;22.92;32.04;100260.81;6337559;22;20010;-69
2022/04/24 09:59:53;;;;;;;8.48;6.57;;;;;;;23.00;31.86;100260.66;6337781;22;20015;-69
2022/04/24 10:02:23;;;;;;;9.82;6.93;;;;;;;23.07;31.88;100247.84;6336347;22;20087;-69
2022/04/24 10:04:50;;;;;;;8.00;6.90;;;;;;;23.13;31.50;100252.50;6337635;22;20022;-69
2022/04/24 10:07:19;;;;;;;8.20;6.95;;;;;;;23.21;31.32;100265.19;6337029;22;20441;-69
2022/04/24 10:09:46;;;;;;;8.27;6.97;;;;;;;23.28;31.22;100254.25;6336946;22;20068;-69
2022/04/24 10:12:17;;;;;;;7.25;6.55;;;;;;;23.34;31.01;100262.47;6337130;22;20432;-69
2022/04/24 10:14:49;;;;;;;7.78;6.97;;;;;;;23.33;30.58;100265.44;6337383;22;20014;-68
2022/04/24 10:17:29;;;;;;;6.65;5.97;;;;;;;23.37;30.67;100256.59;6337030;22;20015;-68
2022/04/24 10:20:35;;;;;;;6.57;5.97;;;;;;;23.42;30.41;100265.03;6309775;22;20014;-68
2022/04/24 10:23:02;;;;;;;7.07;6.35;;;;;;;23.52;30.39;100255.56;6337085;22;20042;-68
2022/04/24 10:25:35;;;;;;;8.20;7.10;;;;;;;23.57;30.60;100259.41;6337262;22;20015;-69
2022/04/24 10:28:18;;;;;;;9.02;6.13;;;;;;;23.62;30.36;100253.31;6308919;22;20006;-68
2022/04/24 10:31:03;;;;;;;8.65;6.30;;;;;;;23.67;29.70;100270.81;6308808;22;20021;-68
2022/04/24 10:33:36;;;;;;;8.32;6.43;;;;;;;23.71;29.51;100266.59;6336595;22;20018;-68
2022/04/24 10:36:05;;;;;;;7.00;6.30;;;;;;;23.78;29.49;100258.38;6336530;22;20011;-69
2022/04/24 10:38:45;;;;;;;8.75;6.63;;;;;;;23.85;29.64;100267.50;6336684;22;20427;-68
2022/04/24 10:41:19;;;;;;;7.68;6.07;;;;;;;23.95;29.51;100267.94;6336418;22;20438;-68
2022/04/24 10:43:48;;;;;;;7.00;6.30;;;;;;;24.03;29.90;100262.22;6309552;22;20014;-69
2022/04/24 10:46:16;;;;;;;6.63;5.95;;;;;;;24.06;29.47;100256.31;6337713;22;20018;-69
2022/04/24 10:48:46;;;;;;;8.07;6.32;;;;;;;24.15;29.59;100256.94;6336889;22;20076;-68
2022/04/24 10:51:13;;;;;;;7.13;6.43;;;;;;;24.25;29.48;100265.59;6336939;22;20021;-69
2022/04/24 10:53:59;;;;;;;9.02;6.10;;;;;;;24.34;29.56;100260.78;6336800;22;20017;-68
2022/04/24 10:56:29;;;;;;;6.13;5.35;;;;;;;24.42;29.18;100260.56;6309736;22;20015;-68
2022/04/24 10:59:17;;;;;;;8.43;6.70;;;;;;;24.47;29.13;100263.50;6309482;22;20341;-69
2022/04/24 11:01:52;;;;;;;6.70;6.00;;;;;;;24.54;29.35;100271.75;6309078;22;20446;-69
2022/04/24 11:04:21;;;;;;;11.02;6.55;;;;;;;24.60;29.20;100255.25;6337354;22;20015;-68
2022/04/24 11:06:55;;;;;;;8.00;5.60;;;;;;;24.67;29.23;100256.09;6337215;22;20441;-68
2022/04/24 11:09:29;;;;;;;7.22;6.15;;;;;;;24.76;28.81;100251.22;6337069;22;20037;-67
2022/04/24 11:12:06;;;;;;;6.47;5.88;;;;;;;24.82;28.50;100261.31;6309428;22;20044;-68
2022/04/24 11:14:37;;;;;;;9.13;5.35;;;;;;;24.82;28.09;100253.09;6337284;22;20030;-68
2022/04/24 11:17:06;;;;;;;5.90;5.00;;;;;;;24.86;28.19;100253.50;6337244;22;20021;-68
2022/04/24 11:19:35;;;;;;;6.78;5.00;;;;;;;24.93;27.88;100262.56;6337016;22;20011;-68
2022/04/24 11:22:12;;;;;;;5.63;4.97;;;;;;;24.96;27.56;100251.97;6336473;22;20118;-69
2022/04/24 11:24:41;;;;;;;8.82;4.97;;;;;;;24.96;27.15;100253.88;6336630;22;20011;-67
2022/04/24 11:27:13;;;;;;;6.55;4.85;;;;;;;24.97;27.03;100259.19;6336276;22;20042;-68
2022/04/24 11:29:43;;;;;;;6.70;5.50;;;;;;;25.00;27.09;100260.66;6336267;22;20013;-69
2022/04/24 11:32:13;;;;;;;8.48;5.00;;;;;;;25.06;26.83;100256.19;6336867;22;20034;-67
2022/04/24 11:34:40;;;;;;;6.32;4.82;;;;;;;25.17;27.33;100247.28;6338425;22;20096;-67
2022/04/24 11:37:09;;;;;;;7.68;5.55;;;;;;;25.24;27.29;100259.06;6339121;22;20019;-67
2022/04/24 11:39:38;;;;;;;7.50;5.53;;;;;;;25.24;26.67;100254.44;6338988;22;20342;-68